sensor_id;sensor_type;location;lat;lon;timestamp;P1;durP1;ratioP1;P2;durP2;ratioP2
20170;SDS011;10245;51.344;6.620;2023-02-01T00:00:38;26.17;;;8.30;;
20170;SDS011;10245;51.344;6.620;2023-02-01T00:03:01;18.08;;;7.82;;
20170;SDS011;10245;51.344;6.620;2023-02-01T00:05:26;22.70;;;8.50;;
20170;SDS011;10245;51.344;6.620;2023-02-01T00:07:50;19.40;;;7.32;;
20170;SDS011;10245;51.344;6.620;2023-02-01T00:10:14;20.95;;;8.10;;
20170;SDS011;10245;51.344;6.620;2023-02-01T00:12:38;21.95;;;8.55;;
20170;SDS011;10245;51.344;6.620;2023-02-01T00:15:02;21.83;;;8.18;;
20170;SDS011;10245;51.344;6.620;2023-02-01T00:17:26;26.80;;;8.43;;
20170;SDS011;10245;51.344;6.620;2023-02-01T00:19:49;19.50;;;8.07;;
20170;SDS011;10245;51.344;6.620;2023-02-01T00:22:12;21.20;;;9.30;;
20170;SDS011;10245;51.344;6.620;2023-02-01T00:24:36;22.58;;;9.05;;
20170;SDS011;10245;51.344;6.620;2023-02-01T00:27:00;25.10;;;10.13;;
20170;SDS011;10245;51.344;6.620;2023-02-01T00:29:24;24.58;;;9.77;;
20170;SDS011;10245;51.344;6.620;2023-02-01T00:31:49;26.70;;;11.13;;
20170;SDS011;10245;51.344;6.620;2023-02-01T00:34:14;24.25;;;10.50;;
20170;SDS011;10245;51.344;6.620;2023-02-01T00:36:38;28.10;;;11.45;;
20170;SDS011;10245;51.344;6.620;2023-02-01T00:39:02;26.25;;;11.07;;
20170;SDS011;10245;51.344;6.620;2023-02-01T00:41:25;28.98;;;11.50;;
20170;SDS011;10245;51.344;6.620;2023-02-01T00:43:50;26.90;;;11.10;;
20170;SDS011;10245;51.344;6.620;2023-02-01T00:46:14;25.30;;;11.18;;
20170;SDS011;10245;51.344;6.620;2023-02-01T00:48:39;26.27;;;11.23;;
20170;SDS011;10245;51.344;6.620;2023-02-01T00:51:04;24.63;;;10.40;;
20170;SDS011;10245;51.344;6.620;2023-02-01T00:53:30;21.55;;;10.27;;
20170;SDS011;10245;51.344;6.620;2023-02-01T00:55:53;27.95;;;9.18;;
20170;SDS011;10245;51.344;6.620;2023-02-01T00:58:17;24.60;;;9.38;;
20170;SDS011;10245;51.344;6.620;2023-02-01T01:00:42;27.33;;;8.80;;
20170;SDS011;10245;51.344;6.620;2023-02-01T01:03:05;21.25;;;8.63;;
20170;SDS011;10245;51.344;6.620;2023-02-01T01:05:38;18.90;;;8.75;;
20170;SDS011;10245;51.344;6.620;2023-02-01T01:08:02;22.05;;;8.70;;
20170;SDS011;10245;51.344;6.620;2023-02-01T01:10:26;23.00;;;8.65;;
20170;SDS011;10245;51.344;6.620;2023-02-01T01:12:49;17.70;;;7.72;;
20170;SDS011;10245;51.344;6.620;2023-02-01T01:15:12;22.25;;;7.90;;
20170;SDS011;10245;51.344;6.620;2023-02-01T01:17:37;22.63;;;7.43;;
20170;SDS011;10245;51.344;6.620;2023-02-01T01:20:00;22.58;;;7.25;;
20170;SDS011;10245;51.344;6.620;2023-02-01T01:22:24;20.15;;;7.07;;
20170;SDS011;10245;51.344;6.620;2023-02-01T01:24:47;19.25;;;7.25;;
20170;SDS011;10245;51.344;6.620;2023-02-01T01:27:10;23.92;;;6.95;;
20170;SDS011;10245;51.344;6.620;2023-02-01T01:29:34;25.52;;;7.35;;
20170;SDS011;10245;51.344;6.620;2023-02-01T01:31:57;22.08;;;5.75;;
20170;SDS011;10245;51.344;6.620;2023-02-01T01:34:23;23.08;;;7.60;;
20170;SDS011;10245;51.344;6.620;2023-02-01T01:36:46;20.23;;;6.80;;
20170;SDS011;10245;51.344;6.620;2023-02-01T01:39:09;23.42;;;6.55;;
20170;SDS011;10245;51.344;6.620;2023-02-01T01:41:32;15.38;;;5.85;;
20170;SDS011;10245;51.344;6.620;2023-02-01T01:44:53;19.98;;;5.65;;
20170;SDS011;10245;51.344;6.620;2023-02-01T01:47:21;20.55;;;5.60;;
20170;SDS011;10245;51.344;6.620;2023-02-01T01:49:45;21.45;;;5.15;;
20170;SDS011;10245;51.344;6.620;2023-02-01T01:52:08;18.73;;;5.65;;
20170;SDS011;10245;51.344;6.620;2023-02-01T01:54:32;19.08;;;5.70;;
20170;SDS011;10245;51.344;6.620;2023-02-01T01:57:00;22.90;;;6.03;;
20170;SDS011;10245;51.344;6.620;2023-02-01T01:59:27;18.63;;;5.63;;
20170;SDS011;10245;51.344;6.620;2023-02-01T02:01:53;15.85;;;5.22;;
20170;SDS011;10245;51.344;6.620;2023-02-01T02:04:18;22.17;;;5.45;;
20170;SDS011;10245;51.344;6.620;2023-02-01T02:06:42;17.58;;;5.70;;
20170;SDS011;10245;51.344;6.620;2023-02-01T02:09:12;21.08;;;6.13;;
20170;SDS011;10245;51.344;6.620;2023-02-01T02:11:36;17.08;;;5.18;;
20170;SDS011;10245;51.344;6.620;2023-02-01T02:14:01;21.45;;;5.90;;
20170;SDS011;10245;51.344;6.620;2023-02-01T02:16:29;18.17;;;5.50;;
20170;SDS011;10245;51.344;6.620;2023-02-01T02:22:17;15.75;;;5.40;;
20170;SDS011;10245;51.344;6.620;2023-02-01T02:25:25;19.20;;;5.10;;
20170;SDS011;10245;51.344;6.620;2023-02-01T02:28:22;17.65;;;5.60;;
20170;SDS011;10245;51.344;6.620;2023-02-01T02:31:52;16.70;;;5.05;;
20170;SDS011;10245;51.344;6.620;2023-02-01T02:34:43;21.33;;;5.88;;
20170;SDS011;10245;51.344;6.620;2023-02-01T02:37:15;25.35;;;5.70;;
20170;SDS011;10245;51.344;6.620;2023-02-01T02:39:48;19.80;;;5.55;;
20170;SDS011;10245;51.344;6.620;2023-02-01T02:42:20;20.80;;;5.03;;
20170;SDS011;10245;51.344;6.620;2023-02-01T02:45:11;18.90;;;5.05;;
20170;SDS011;10245;51.344;6.620;2023-02-01T02:48:00;18.80;;;5.53;;
20170;SDS011;10245;51.344;6.620;2023-02-01T02:50:34;16.73;;;4.90;;
20170;SDS011;10245;51.344;6.620;2023-02-01T02:53:21;18.98;;;5.10;;
20170;SDS011;10245;51.344;6.620;2023-02-01T02:56:10;20.52;;;5.40;;
20170;SDS011;10245;51.344;6.620;2023-02-01T02:58:52;21.23;;;6.18;;
20170;SDS011;10245;51.344;6.620;2023-02-01T03:01:34;26.50;;;6.18;;
20170;SDS011;10245;51.344;6.620;2023-02-01T03:04:17;24.77;;;5.68;;
20170;SDS011;10245;51.344;6.620;2023-02-01T03:06:44;24.30;;;5.73;;
20170;SDS011;10245;51.344;6.620;2023-02-01T03:09:09;22.98;;;6.07;;
20170;SDS011;10245;51.344;6.620;2023-02-01T03:11:40;27.23;;;5.57;;
20170;SDS011;10245;51.344;6.620;2023-02-01T03:14:25;20.40;;;5.80;;
20170;SDS011;10245;51.344;6.620;2023-02-01T03:16:51;23.20;;;6.33;;
20170;SDS011;10245;51.344;6.620;2023-02-01T03:19:22;27.25;;;6.55;;
20170;SDS011;10245;51.344;6.620;2023-02-01T03:21:51;25.42;;;6.95;;
20170;SDS011;10245;51.344;6.620;2023-02-01T03:24:19;28.20;;;6.50;;
20170;SDS011;10245;51.344;6.620;2023-02-01T03:26:55;21.60;;;6.00;;
20170;SDS011;10245;51.344;6.620;2023-02-01T03:29:25;27.88;;;6.68;;
20170;SDS011;10245;51.344;6.620;2023-02-01T03:31:54;24.00;;;6.30;;
20170;SDS011;10245;51.344;6.620;2023-02-01T03:34:18;23.37;;;7.00;;
20170;SDS011;10245;51.344;6.620;2023-02-01T03:36:42;27.73;;;6.50;;
20170;SDS011;10245;51.344;6.620;2023-02-01T03:39:14;24.83;;;5.97;;
20170;SDS011;10245;51.344;6.620;2023-02-01T03:41:44;25.88;;;6.38;;
20170;SDS011;10245;51.344;6.620;2023-02-01T03:44:14;23.60;;;6.40;;
20170;SDS011;10245;51.344;6.620;2023-02-01T03:46:43;25.13;;;6.32;;
20170;SDS011;10245;51.344;6.620;2023-02-01T03:49:14;27.10;;;6.88;;
20170;SDS011;10245;51.344;6.620;2023-02-01T03:51:43;23.17;;;6.70;;
20170;SDS011;10245;51.344;6.620;2023-02-01T03:54:06;33.97;;;7.38;;
20170;SDS011;10245;51.344;6.620;2023-02-01T03:56:36;24.77;;;5.65;;
20170;SDS011;10245;51.344;6.620;2023-02-01T03:59:02;34.05;;;6.50;;
20170;SDS011;10245;51.344;6.620;2023-02-01T04:01:29;22.45;;;6.30;;
20170;SDS011;10245;51.344;6.620;2023-02-01T04:03:54;25.15;;;6.88;;
20170;SDS011;10245;51.344;6.620;2023-02-01T04:06:19;21.30;;;6.30;;
20170;SDS011;10245;51.344;6.620;2023-02-01T04:08:42;15.55;;;4.78;;
20170;SDS011;10245;51.344;6.620;2023-02-01T04:11:07;27.80;;;6.80;;
20170;SDS011;10245;51.344;6.620;2023-02-01T04:13:30;24.80;;;6.55;;
20170;SDS011;10245;51.344;6.620;2023-02-01T04:15:54;25.30;;;6.25;;
20170;SDS011;10245;51.344;6.620;2023-02-01T04:18:17;19.13;;;5.40;;
20170;SDS011;10245;51.344;6.620;2023-02-01T04:20:41;23.67;;;6.13;;
20170;SDS011;10245;51.344;6.620;2023-02-01T04:23:06;23.95;;;6.57;;
20170;SDS011;10245;51.344;6.620;2023-02-01T04:25:29;21.70;;;5.25;;
20170;SDS011;10245;51.344;6.620;2023-02-01T04:27:54;24.75;;;6.32;;
20170;SDS011;10245;51.344;6.620;2023-02-01T04:30:17;28.15;;;6.10;;
20170;SDS011;10245;51.344;6.620;2023-02-01T04:32:41;29.92;;;6.75;;
20170;SDS011;10245;51.344;6.620;2023-02-01T04:35:05;28.20;;;5.97;;
20170;SDS011;10245;51.344;6.620;2023-02-01T04:37:30;28.92;;;6.28;;
20170;SDS011;10245;51.344;6.620;2023-02-01T04:39:53;21.93;;;5.43;;
20170;SDS011;10245;51.344;6.620;2023-02-01T04:42:16;29.77;;;7.03;;
20170;SDS011;10245;51.344;6.620;2023-02-01T04:44:41;22.33;;;6.00;;
20170;SDS011;10245;51.344;6.620;2023-02-01T04:47:05;24.65;;;5.68;;
20170;SDS011;10245;51.344;6.620;2023-02-01T04:49:28;25.60;;;5.85;;
20170;SDS011;10245;51.344;6.620;2023-02-01T04:51:51;22.73;;;5.95;;
20170;SDS011;10245;51.344;6.620;2023-02-01T04:54:15;25.45;;;7.13;;
20170;SDS011;10245;51.344;6.620;2023-02-01T04:56:38;25.08;;;5.75;;
20170;SDS011;10245;51.344;6.620;2023-02-01T04:59:02;23.42;;;5.72;;
20170;SDS011;10245;51.344;6.620;2023-02-01T05:01:27;24.33;;;5.50;;
20170;SDS011;10245;51.344;6.620;2023-02-01T05:03:50;25.38;;;6.30;;
20170;SDS011;10245;51.344;6.620;2023-02-01T05:06:14;23.37;;;5.67;;
20170;SDS011;10245;51.344;6.620;2023-02-01T05:08:37;21.90;;;5.38;;
20170;SDS011;10245;51.344;6.620;2023-02-01T05:11:00;27.23;;;6.65;;
20170;SDS011;10245;51.344;6.620;2023-02-01T05:13:24;31.95;;;6.18;;
20170;SDS011;10245;51.344;6.620;2023-02-01T05:16:14;28.48;;;6.80;;
20170;SDS011;10245;51.344;6.620;2023-02-01T05:18:38;27.30;;;6.15;;
20170;SDS011;10245;51.344;6.620;2023-02-01T05:21:02;31.30;;;7.15;;
20170;SDS011;10245;51.344;6.620;2023-02-01T05:23:25;22.30;;;5.63;;
20170;SDS011;10245;51.344;6.620;2023-02-01T05:25:49;23.83;;;5.43;;
20170;SDS011;10245;51.344;6.620;2023-02-01T05:28:12;27.63;;;6.93;;
20170;SDS011;10245;51.344;6.620;2023-02-01T05:30:36;31.83;;;5.97;;
20170;SDS011;10245;51.344;6.620;2023-02-01T05:33:02;28.25;;;6.22;;
20170;SDS011;10245;51.344;6.620;2023-02-01T05:35:27;23.73;;;5.10;;
20170;SDS011;10245;51.344;6.620;2023-02-01T05:37:51;31.73;;;6.30;;
20170;SDS011;10245;51.344;6.620;2023-02-01T05:40:14;28.73;;;6.75;;
20170;SDS011;10245;51.344;6.620;2023-02-01T05:42:38;27.35;;;6.18;;
20170;SDS011;10245;51.344;6.620;2023-02-01T05:45:01;28.98;;;6.78;;
20170;SDS011;10245;51.344;6.620;2023-02-01T05:47:26;28.23;;;6.50;;
20170;SDS011;10245;51.344;6.620;2023-02-01T05:49:50;26.05;;;6.22;;
20170;SDS011;10245;51.344;6.620;2023-02-01T05:52:14;28.30;;;5.93;;
20170;SDS011;10245;51.344;6.620;2023-02-01T05:54:40;26.05;;;6.95;;
20170;SDS011;10245;51.344;6.620;2023-02-01T05:57:03;21.17;;;5.50;;
20170;SDS011;10245;51.344;6.620;2023-02-01T05:59:27;21.80;;;6.03;;
20170;SDS011;10245;51.344;6.620;2023-02-01T06:01:50;28.13;;;6.33;;
20170;SDS011;10245;51.344;6.620;2023-02-01T06:04:14;33.23;;;7.23;;
20170;SDS011;10245;51.344;6.620;2023-02-01T06:06:37;33.75;;;6.78;;
20170;SDS011;10245;51.344;6.620;2023-02-01T06:09:02;23.93;;;5.27;;
20170;SDS011;10245;51.344;6.620;2023-02-01T06:11:26;27.80;;;5.65;;
20170;SDS011;10245;51.344;6.620;2023-02-01T06:13:53;27.77;;;6.20;;
20170;SDS011;10245;51.344;6.620;2023-02-01T06:16:16;29.65;;;6.00;;
20170;SDS011;10245;51.344;6.620;2023-02-01T06:18:40;23.17;;;6.75;;
20170;SDS011;10245;51.344;6.620;2023-02-01T06:21:03;23.27;;;6.13;;
20170;SDS011;10245;51.344;6.620;2023-02-01T06:23:27;27.42;;;7.93;;
20170;SDS011;10245;51.344;6.620;2023-02-01T06:25:52;23.90;;;6.40;;
20170;SDS011;10245;51.344;6.620;2023-02-01T06:28:21;30.25;;;7.32;;
20170;SDS011;10245;51.344;6.620;2023-02-01T06:30:44;19.55;;;5.22;;
20170;SDS011;10245;51.344;6.620;2023-02-01T06:33:08;29.67;;;7.75;;
20170;SDS011;10245;51.344;6.620;2023-02-01T06:35:31;31.07;;;6.43;;
20170;SDS011;10245;51.344;6.620;2023-02-01T06:37:55;28.02;;;6.22;;
20170;SDS011;10245;51.344;6.620;2023-02-01T06:40:19;30.02;;;6.88;;
20170;SDS011;10245;51.344;6.620;2023-02-01T06:42:44;24.55;;;5.80;;
20170;SDS011;10245;51.344;6.620;2023-02-01T06:45:07;26.70;;;5.90;;
20170;SDS011;10245;51.344;6.620;2023-02-01T06:47:32;22.83;;;5.82;;
20170;SDS011;10245;51.344;6.620;2023-02-01T06:49:55;24.58;;;6.20;;
20170;SDS011;10245;51.344;6.620;2023-02-01T06:52:18;21.92;;;5.97;;
20170;SDS011;10245;51.344;6.620;2023-02-01T06:54:42;29.10;;;6.30;;
20170;SDS011;10245;51.344;6.620;2023-02-01T06:57:05;22.53;;;6.20;;
20170;SDS011;10245;51.344;6.620;2023-02-01T06:59:29;27.48;;;6.10;;
20170;SDS011;10245;51.344;6.620;2023-02-01T07:01:53;30.65;;;5.93;;
20170;SDS011;10245;51.344;6.620;2023-02-01T07:04:16;23.67;;;6.05;;
20170;SDS011;10245;51.344;6.620;2023-02-01T07:06:40;26.20;;;5.90;;
20170;SDS011;10245;51.344;6.620;2023-02-01T07:09:03;26.73;;;5.97;;
20170;SDS011;10245;51.344;6.620;2023-02-01T07:11:26;26.67;;;5.95;;
20170;SDS011;10245;51.344;6.620;2023-02-01T07:13:50;27.98;;;6.72;;
20170;SDS011;10245;51.344;6.620;2023-02-01T07:16:16;28.30;;;5.82;;
20170;SDS011;10245;51.344;6.620;2023-02-01T07:18:41;22.63;;;5.72;;
20170;SDS011;10245;51.344;6.620;2023-02-01T07:21:05;24.98;;;7.10;;
20170;SDS011;10245;51.344;6.620;2023-02-01T07:23:29;33.58;;;6.03;;
20170;SDS011;10245;51.344;6.620;2023-02-01T07:25:54;26.15;;;6.35;;
20170;SDS011;10245;51.344;6.620;2023-02-01T07:28:18;32.63;;;6.18;;
20170;SDS011;10245;51.344;6.620;2023-02-01T07:30:41;29.63;;;6.80;;
20170;SDS011;10245;51.344;6.620;2023-02-01T07:33:06;31.77;;;6.60;;
20170;SDS011;10245;51.344;6.620;2023-02-01T07:35:30;26.25;;;5.60;;
20170;SDS011;10245;51.344;6.620;2023-02-01T07:37:54;29.73;;;6.40;;
20170;SDS011;10245;51.344;6.620;2023-02-01T07:40:19;22.40;;;5.53;;
20170;SDS011;10245;51.344;6.620;2023-02-01T07:42:50;26.58;;;6.55;;
20170;SDS011;10245;51.344;6.620;2023-02-01T07:45:13;25.13;;;6.38;;
20170;SDS011;10245;51.344;6.620;2023-02-01T07:47:47;22.98;;;6.78;;
20170;SDS011;10245;51.344;6.620;2023-02-01T07:50:12;29.65;;;6.32;;
20170;SDS011;10245;51.344;6.620;2023-02-01T07:52:36;25.80;;;5.85;;
20170;SDS011;10245;51.344;6.620;2023-02-01T07:55:01;33.58;;;6.40;;
20170;SDS011;10245;51.344;6.620;2023-02-01T07:57:25;25.50;;;6.35;;
20170;SDS011;10245;51.344;6.620;2023-02-01T07:59:48;26.05;;;5.95;;
20170;SDS011;10245;51.344;6.620;2023-02-01T08:02:33;30.97;;;6.50;;
20170;SDS011;10245;51.344;6.620;2023-02-01T08:04:56;25.30;;;5.75;;
20170;SDS011;10245;51.344;6.620;2023-02-01T08:07:21;29.00;;;6.00;;
20170;SDS011;10245;51.344;6.620;2023-02-01T08:09:44;28.15;;;6.55;;
20170;SDS011;10245;51.344;6.620;2023-02-01T08:12:08;26.00;;;6.35;;
20170;SDS011;10245;51.344;6.620;2023-02-01T08:14:32;34.22;;;6.55;;
20170;SDS011;10245;51.344;6.620;2023-02-01T08:16:55;32.25;;;6.47;;
20170;SDS011;10245;51.344;6.620;2023-02-01T08:19:19;30.83;;;5.70;;
20170;SDS011;10245;51.344;6.620;2023-02-01T08:21:42;26.02;;;5.80;;
20170;SDS011;10245;51.344;6.620;2023-02-01T08:24:07;33.42;;;7.50;;
20170;SDS011;10245;51.344;6.620;2023-02-01T08:26:32;33.20;;;7.10;;
20170;SDS011;10245;51.344;6.620;2023-02-01T08:28:57;31.33;;;5.85;;
20170;SDS011;10245;51.344;6.620;2023-02-01T08:31:24;24.92;;;6.15;;
20170;SDS011;10245;51.344;6.620;2023-02-01T08:33:50;25.02;;;5.70;;
20170;SDS011;10245;51.344;6.620;2023-02-01T08:36:15;24.67;;;6.30;;
20170;SDS011;10245;51.344;6.620;2023-02-01T08:38:39;30.92;;;5.65;;
20170;SDS011;10245;51.344;6.620;2023-02-01T08:41:07;21.67;;;6.15;;
20170;SDS011;10245;51.344;6.620;2023-02-01T08:43:32;33.45;;;5.90;;
20170;SDS011;10245;51.344;6.620;2023-02-01T08:45:56;26.08;;;6.47;;
20170;SDS011;10245;51.344;6.620;2023-02-01T08:48:20;22.60;;;6.05;;
20170;SDS011;10245;51.344;6.620;2023-02-01T08:50:43;25.98;;;5.90;;
20170;SDS011;10245;51.344;6.620;2023-02-01T08:53:06;26.38;;;5.60;;
20170;SDS011;10245;51.344;6.620;2023-02-01T08:55:30;27.92;;;6.45;;
20170;SDS011;10245;51.344;6.620;2023-02-01T08:57:54;27.77;;;6.25;;
20170;SDS011;10245;51.344;6.620;2023-02-01T09:00:18;23.25;;;5.82;;
20170;SDS011;10245;51.344;6.620;2023-02-01T09:02:42;29.10;;;6.32;;
20170;SDS011;10245;51.344;6.620;2023-02-01T09:05:07;32.00;;;6.35;;
20170;SDS011;10245;51.344;6.620;2023-02-01T09:07:32;21.83;;;5.95;;
20170;SDS011;10245;51.344;6.620;2023-02-01T09:09:56;34.38;;;6.57;;
20170;SDS011;10245;51.344;6.620;2023-02-01T09:12:22;28.30;;;6.95;;
20170;SDS011;10245;51.344;6.620;2023-02-01T09:14:47;25.85;;;5.63;;
20170;SDS011;10245;51.344;6.620;2023-02-01T09:17:10;24.15;;;6.00;;
20170;SDS011;10245;51.344;6.620;2023-02-01T09:19:34;25.10;;;6.70;;
20170;SDS011;10245;51.344;6.620;2023-02-01T09:21:58;28.15;;;6.25;;
20170;SDS011;10245;51.344;6.620;2023-02-01T09:24:21;26.83;;;6.47;;
20170;SDS011;10245;51.344;6.620;2023-02-01T09:26:44;25.90;;;6.25;;
20170;SDS011;10245;51.344;6.620;2023-02-01T09:29:08;24.77;;;6.70;;
20170;SDS011;10245;51.344;6.620;2023-02-01T09:31:35;26.20;;;6.35;;
20170;SDS011;10245;51.344;6.620;2023-02-01T09:34:00;31.98;;;7.20;;
20170;SDS011;10245;51.344;6.620;2023-02-01T09:36:23;34.38;;;6.43;;
20170;SDS011;10245;51.344;6.620;2023-02-01T09:38:48;29.65;;;5.82;;
20170;SDS011;10245;51.344;6.620;2023-02-01T09:41:17;27.13;;;5.78;;
20170;SDS011;10245;51.344;6.620;2023-02-01T09:43:55;30.50;;;7.47;;
20170;SDS011;10245;51.344;6.620;2023-02-01T09:46:31;25.35;;;6.25;;
20170;SDS011;10245;51.344;6.620;2023-02-01T09:48:58;29.23;;;5.80;;
20170;SDS011;10245;51.344;6.620;2023-02-01T09:51:27;24.98;;;5.72;;
20170;SDS011;10245;51.344;6.620;2023-02-01T09:53:56;25.88;;;5.90;;
20170;SDS011;10245;51.344;6.620;2023-02-01T09:56:26;30.90;;;7.43;;
20170;SDS011;10245;51.344;6.620;2023-02-01T09:58:59;23.33;;;6.80;;
20170;SDS011;10245;51.344;6.620;2023-02-01T10:01:32;31.52;;;7.00;;
20170;SDS011;10245;51.344;6.620;2023-02-01T10:03:59;29.30;;;6.20;;
20170;SDS011;10245;51.344;6.620;2023-02-01T10:06:31;26.42;;;6.88;;
20170;SDS011;10245;51.344;6.620;2023-02-01T10:09:16;25.77;;;6.68;;
20170;SDS011;10245;51.344;6.620;2023-02-01T10:12:03;26.60;;;6.78;;
20170;SDS011;10245;51.344;6.620;2023-02-01T10:15:10;22.95;;;6.25;;
20170;SDS011;10245;51.344;6.620;2023-02-01T10:17:49;27.80;;;6.00;;
20170;SDS011;10245;51.344;6.620;2023-02-01T10:20:28;27.77;;;6.38;;
20170;SDS011;10245;51.344;6.620;2023-02-01T10:23:05;29.73;;;7.10;;
20170;SDS011;10245;51.344;6.620;2023-02-01T10:25:54;29.77;;;5.65;;
20170;SDS011;10245;51.344;6.620;2023-02-01T10:28:18;23.10;;;5.30;;
20170;SDS011;10245;51.344;6.620;2023-02-01T10:30:46;23.27;;;6.05;;
20170;SDS011;10245;51.344;6.620;2023-02-01T10:33:14;20.70;;;5.43;;
20170;SDS011;10245;51.344;6.620;2023-02-01T10:35:41;28.25;;;6.25;;
20170;SDS011;10245;51.344;6.620;2023-02-01T10:38:08;27.00;;;6.70;;
20170;SDS011;10245;51.344;6.620;2023-02-01T10:40:40;23.42;;;5.32;;
20170;SDS011;10245;51.344;6.620;2023-02-01T10:43:03;25.58;;;5.68;;
20170;SDS011;10245;51.344;6.620;2023-02-01T10:45:28;22.67;;;5.88;;
20170;SDS011;10245;51.344;6.620;2023-02-01T10:47:53;21.55;;;6.00;;
20170;SDS011;10245;51.344;6.620;2023-02-01T10:50:24;23.52;;;6.38;;
20170;SDS011;10245;51.344;6.620;2023-02-01T10:52:59;25.42;;;5.93;;
20170;SDS011;10245;51.344;6.620;2023-02-01T10:55:29;22.63;;;5.65;;
20170;SDS011;10245;51.344;6.620;2023-02-01T10:58:03;21.23;;;6.50;;
20170;SDS011;10245;51.344;6.620;2023-02-01T11:00:42;25.23;;;6.35;;
20170;SDS011;10245;51.344;6.620;2023-02-01T11:03:22;24.70;;;6.18;;
20170;SDS011;10245;51.344;6.620;2023-02-01T11:05:59;18.25;;;6.10;;
20170;SDS011;10245;51.344;6.620;2023-02-01T11:08:27;26.40;;;6.10;;
20170;SDS011;10245;51.344;6.620;2023-02-01T11:10:56;25.73;;;5.75;;
20170;SDS011;10245;51.344;6.620;2023-02-01T11:13:22;24.23;;;6.00;;
20170;SDS011;10245;51.344;6.620;2023-02-01T11:15:54;22.10;;;5.25;;
20170;SDS011;10245;51.344;6.620;2023-02-01T11:18:19;23.70;;;5.70;;
20170;SDS011;10245;51.344;6.620;2023-02-01T11:20:49;21.38;;;4.93;;
20170;SDS011;10245;51.344;6.620;2023-02-01T11:23:13;25.02;;;5.97;;
20170;SDS011;10245;51.344;6.620;2023-02-01T11:25:40;21.02;;;5.88;;
20170;SDS011;10245;51.344;6.620;2023-02-01T11:28:12;21.27;;;5.10;;
20170;SDS011;10245;51.344;6.620;2023-02-01T11:30:36;25.63;;;6.82;;
20170;SDS011;10245;51.344;6.620;2023-02-01T11:33:04;16.88;;;5.38;;
20170;SDS011;10245;51.344;6.620;2023-02-01T11:35:29;25.48;;;6.03;;
20170;SDS011;10245;51.344;6.620;2023-02-01T11:37:54;19.95;;;5.88;;
20170;SDS011;10245;51.344;6.620;2023-02-01T11:40:25;17.60;;;5.55;;
20170;SDS011;10245;51.344;6.620;2023-02-01T11:42:56;24.33;;;6.30;;
20170;SDS011;10245;51.344;6.620;2023-02-01T11:45:24;26.20;;;6.13;;
20170;SDS011;10245;51.344;6.620;2023-02-01T11:47:51;24.85;;;5.63;;
20170;SDS011;10245;51.344;6.620;2023-02-01T11:50:17;25.48;;;5.78;;
20170;SDS011;10245;51.344;6.620;2023-02-01T11:52:50;24.40;;;6.22;;
20170;SDS011;10245;51.344;6.620;2023-02-01T11:55:42;25.30;;;6.07;;
20170;SDS011;10245;51.344;6.620;2023-02-01T11:58:20;25.13;;;5.95;;
20170;SDS011;10245;51.344;6.620;2023-02-01T12:01:12;26.92;;;6.65;;
20170;SDS011;10245;51.344;6.620;2023-02-01T12:04:13;20.35;;;6.18;;
20170;SDS011;10245;51.344;6.620;2023-02-01T12:07:00;23.05;;;5.15;;
20170;SDS011;10245;51.344;6.620;2023-02-01T12:09:35;20.05;;;6.57;;
20170;SDS011;10245;51.344;6.620;2023-02-01T12:12:11;20.83;;;6.47;;
20170;SDS011;10245;51.344;6.620;2023-02-01T12:14:48;20.83;;;4.53;;
20170;SDS011;10245;51.344;6.620;2023-02-01T12:17:31;24.05;;;5.32;;
20170;SDS011;10245;51.344;6.620;2023-02-01T12:20:17;17.38;;;5.30;;
20170;SDS011;10245;51.344;6.620;2023-02-01T12:22:56;21.05;;;5.20;;
20170;SDS011;10245;51.344;6.620;2023-02-01T12:25:37;25.75;;;5.03;;
20170;SDS011;10245;51.344;6.620;2023-02-01T12:31:38;20.42;;;5.05;;
20170;SDS011;10245;51.344;6.620;2023-02-01T12:34:16;24.45;;;5.35;;
20170;SDS011;10245;51.344;6.620;2023-02-01T12:36:54;21.73;;;5.25;;
20170;SDS011;10245;51.344;6.620;2023-02-01T12:39:31;16.77;;;4.70;;
20170;SDS011;10245;51.344;6.620;2023-02-01T12:42:01;20.77;;;4.93;;
20170;SDS011;10245;51.344;6.620;2023-02-01T12:44:36;27.27;;;5.95;;
20170;SDS011;10245;51.344;6.620;2023-02-01T12:47:09;23.27;;;5.65;;
20170;SDS011;10245;51.344;6.620;2023-02-01T12:49:46;29.50;;;5.30;;
20170;SDS011;10245;51.344;6.620;2023-02-01T12:52:17;19.58;;;4.57;;
20170;SDS011;10245;51.344;6.620;2023-02-01T12:54:47;17.80;;;5.05;;
20170;SDS011;10245;51.344;6.620;2023-02-01T12:57:17;18.20;;;4.20;;
20170;SDS011;10245;51.344;6.620;2023-02-01T12:59:47;17.50;;;4.30;;
20170;SDS011;10245;51.344;6.620;2023-02-01T13:02:22;21.77;;;5.32;;
20170;SDS011;10245;51.344;6.620;2023-02-01T13:04:56;20.90;;;4.68;;
20170;SDS011;10245;51.344;6.620;2023-02-01T13:07:26;22.98;;;4.47;;
20170;SDS011;10245;51.344;6.620;2023-02-01T13:09:55;14.68;;;3.90;;
20170;SDS011;10245;51.344;6.620;2023-02-01T13:12:28;22.55;;;5.80;;
20170;SDS011;10245;51.344;6.620;2023-02-01T13:14:58;13.98;;;3.70;;
20170;SDS011;10245;51.344;6.620;2023-02-01T13:17:27;12.07;;;3.33;;
20170;SDS011;10245;51.344;6.620;2023-02-01T13:19:54;23.02;;;4.00;;
20170;SDS011;10245;51.344;6.620;2023-02-01T13:22:22;16.55;;;4.28;;
20170;SDS011;10245;51.344;6.620;2023-02-01T13:24:50;19.27;;;3.97;;
20170;SDS011;10245;51.344;6.620;2023-02-01T13:27:18;15.73;;;3.60;;
20170;SDS011;10245;51.344;6.620;2023-02-01T13:29:44;18.90;;;3.70;;
20170;SDS011;10245;51.344;6.620;2023-02-01T13:32:20;19.15;;;4.30;;
20170;SDS011;10245;51.344;6.620;2023-02-01T13:38:26;16.70;;;4.55;;
20170;SDS011;10245;51.344;6.620;2023-02-01T13:41:13;14.90;;;3.58;;
20170;SDS011;10245;51.344;6.620;2023-02-01T13:43:49;15.27;;;4.60;;
20170;SDS011;10245;51.344;6.620;2023-02-01T13:46:16;21.65;;;4.70;;
20170;SDS011;10245;51.344;6.620;2023-02-01T13:48:45;18.38;;;4.15;;
20170;SDS011;10245;51.344;6.620;2023-02-01T13:51:12;19.27;;;3.67;;
20170;SDS011;10245;51.344;6.620;2023-02-01T13:53:37;23.30;;;4.53;;
20170;SDS011;10245;51.344;6.620;2023-02-01T13:56:10;15.57;;;3.60;;
20170;SDS011;10245;51.344;6.620;2023-02-01T13:58:38;14.93;;;4.07;;
20170;SDS011;10245;51.344;6.620;2023-02-01T14:04:00;18.45;;;4.00;;
20170;SDS011;10245;51.344;6.620;2023-02-01T14:06:43;22.55;;;4.32;;
20170;SDS011;10245;51.344;6.620;2023-02-01T14:09:14;17.60;;;3.55;;
20170;SDS011;10245;51.344;6.620;2023-02-01T14:11:55;24.60;;;3.90;;
20170;SDS011;10245;51.344;6.620;2023-02-01T14:23:21;23.80;;;4.20;;
20170;SDS011;10245;51.344;6.620;2023-02-01T14:25:47;25.45;;;4.68;;
20170;SDS011;10245;51.344;6.620;2023-02-01T14:28:34;19.42;;;4.40;;
20170;SDS011;10245;51.344;6.620;2023-02-01T14:31:13;19.23;;;4.72;;
20170;SDS011;10245;51.344;6.620;2023-02-01T14:33:59;22.90;;;4.53;;
20170;SDS011;10245;51.344;6.620;2023-02-01T14:36:35;21.63;;;4.07;;
20170;SDS011;10245;51.344;6.620;2023-02-01T14:39:16;20.27;;;4.57;;
20170;SDS011;10245;51.344;6.620;2023-02-01T14:41:43;15.07;;;3.95;;
20170;SDS011;10245;51.344;6.620;2023-02-01T14:47:02;14.60;;;3.83;;
20170;SDS011;10245;51.344;6.620;2023-02-01T14:53:02;16.55;;;4.43;;
20170;SDS011;10245;51.344;6.620;2023-02-01T14:55:43;16.98;;;4.50;;
20170;SDS011;10245;51.344;6.620;2023-02-01T14:58:14;17.08;;;4.43;;
20170;SDS011;10245;51.344;6.620;2023-02-01T15:00:52;18.98;;;4.35;;
20170;SDS011;10245;51.344;6.620;2023-02-01T15:03:34;25.00;;;5.13;;
20170;SDS011;10245;51.344;6.620;2023-02-01T15:06:24;17.70;;;4.18;;
20170;SDS011;10245;51.344;6.620;2023-02-01T15:09:01;18.02;;;4.50;;
20170;SDS011;10245;51.344;6.620;2023-02-01T15:11:32;18.05;;;4.13;;